createdAt,value
2018-03-23T00:01:17.316Z,46.33
2018-03-23T00:03:44.852Z,43.58
2018-03-23T00:06:12.368Z,43.77
2018-03-23T00:08:39.931Z,45.38
2018-03-23T00:11:08.224Z,40.60
2018-03-23T00:13:35.760Z,46.10
2018-03-23T00:16:03.276Z,42.33
2018-03-23T00:18:31.147Z,48.38
2018-03-23T00:20:58.716Z,44.57
2018-03-23T00:23:26.252Z,46.63
2018-03-23T00:25:53.887Z,50.93
2018-03-23T00:28:21.422Z,43.20
2018-03-23T00:30:48.937Z,50.83
2018-03-23T00:33:16.488Z,44.47
2018-03-23T00:35:44.015Z,49.47
2018-03-23T00:38:11.547Z,38.30
2018-03-23T00:40:39.056Z,41.60
2018-03-23T00:43:06.591Z,41.17
2018-03-23T00:45:34.107Z,38.73
2018-03-23T00:48:02.416Z,39.23
2018-03-23T00:50:29.948Z,34.90
2018-03-23T00:52:57.463Z,33.20
2018-03-23T00:55:25.772Z,35.70
2018-03-23T00:57:53.283Z,31.73
2018-03-23T01:00:21.933Z,32.37
2018-03-23T01:02:50.224Z,33.13
2018-03-23T01:05:17.761Z,31.90
2018-03-23T01:07:45.293Z,35.05
2018-03-23T01:10:13.588Z,31.20
2018-03-23T01:12:41.099Z,36.80
2018-03-23T01:15:09.402Z,39.10
2018-03-23T01:17:36.915Z,33.10
2018-03-23T01:20:04.462Z,37.15
2018-03-23T01:22:32.610Z,41.60
2018-03-23T01:25:00.900Z,35.63
2018-03-23T01:27:28.469Z,42.07
2018-03-23T01:29:56.002Z,33.47
2018-03-23T01:32:23.528Z,43.57
2018-03-23T01:34:51.059Z,40.95
2018-03-23T01:37:19.335Z,48.17
2018-03-23T01:39:46.875Z,51.63
2018-03-23T01:42:14.446Z,44.57
2018-03-23T01:44:41.972Z,48.70
2018-03-23T01:47:09.493Z,51.87
2018-03-23T01:49:37.028Z,40.33
2018-03-23T01:52:05.316Z,47.20
2018-03-23T01:54:33.780Z,47.30
2018-03-23T01:57:01.335Z,45.10
2018-03-23T01:59:28.884Z,44.95
2018-03-23T02:01:56.398Z,36.20
2018-03-23T02:04:23.983Z,41.05
2018-03-23T02:06:51.497Z,45.87
2018-03-23T02:09:19.012Z,41.37
2018-03-23T02:11:47.318Z,48.03
2018-03-23T02:14:14.828Z,40.10
2018-03-23T02:16:43.122Z,45.20
2018-03-23T02:19:10.680Z,48.03
2018-03-23T02:21:38.272Z,42.33
2018-03-23T02:24:05.765Z,40.67
2018-03-23T02:26:33.300Z,44.40
2018-03-23T02:29:00.812Z,43.00
2018-03-23T02:31:29.109Z,40.50
2018-03-23T02:33:56.636Z,42.53
2018-03-23T02:36:24.204Z,39.60
2018-03-23T02:38:51.745Z,41.93
2018-03-23T02:41:19.297Z,40.37
2018-03-23T02:43:46.812Z,38.27
2018-03-23T02:46:14.341Z,42.70
2018-03-23T02:48:42.629Z,42.77
2018-03-23T02:51:10.172Z,40.33
2018-03-23T02:53:37.680Z,41.13
2018-03-23T02:56:06.008Z,37.80
2018-03-23T02:58:33.528Z,45.77
2018-03-23T03:01:01.073Z,46.80
2018-03-23T03:03:28.612Z,37.87
2018-03-23T03:05:56.188Z,48.00
2018-03-23T03:08:23.701Z,47.17
2018-03-23T03:10:51.228Z,38.20
2018-03-23T03:13:18.756Z,41.00
2018-03-23T03:15:47.661Z,39.90
2018-03-23T03:18:15.180Z,42.33
2018-03-23T03:20:42.736Z,42.17
2018-03-23T03:23:10.265Z,42.33
2018-03-23T03:25:38.602Z,49.40
2018-03-23T03:28:06.176Z,47.50
2018-03-23T03:30:34.482Z,40.07
2018-03-23T03:33:02.048Z,43.40
2018-03-23T03:35:29.592Z,39.30
2018-03-23T03:37:57.184Z,39.87
2018-03-23T03:40:24.669Z,41.43
2018-03-23T03:42:52.201Z,39.80
2018-03-23T03:45:19.715Z,35.23
2018-03-23T03:47:47.245Z,36.50
2018-03-23T03:50:15.553Z,40.10
2018-03-23T03:52:43.101Z,37.77
2018-03-23T03:55:10.630Z,41.77
2018-03-23T03:57:38.196Z,41.87
2018-03-23T04:00:05.713Z,40.60
2018-03-23T04:02:33.252Z,39.77
2018-03-23T04:05:00.819Z,39.13
2018-03-23T04:07:28.356Z,34.93
2018-03-23T04:09:55.873Z,33.33
2018-03-23T04:12:24.227Z,34.07
2018-03-23T04:14:52.513Z,38.43
2018-03-23T04:17:20.087Z,37.07
2018-03-23T04:19:47.609Z,39.77
2018-03-23T04:22:15.148Z,32.67
2018-03-23T04:24:42.664Z,31.67
2018-03-23T04:27:10.960Z,28.00
2018-03-23T04:29:38.527Z,36.63
2018-03-23T04:32:06.064Z,34.60
2018-03-23T04:34:33.601Z,35.30
2018-03-23T04:37:02.168Z,33.43
2018-03-23T04:39:29.688Z,34.00
2018-03-23T04:41:57.220Z,31.87
2018-03-23T04:44:24.744Z,31.75
2018-03-23T04:46:52.261Z,36.50
2018-03-23T04:49:19.796Z,37.53
2018-03-23T04:51:47.308Z,38.03
2018-03-23T04:54:14.860Z,34.70
2018-03-23T04:56:42.414Z,42.20
2018-03-23T04:59:09.971Z,40.40
2018-03-23T05:01:38.255Z,40.97
2018-03-23T05:04:05.793Z,37.63
2018-03-23T05:06:33.309Z,36.53
2018-03-23T05:09:00.844Z,38.57
2018-03-23T05:11:28.363Z,35.53
2018-03-23T05:13:56.658Z,39.50
2018-03-23T05:16:24.210Z,39.70
2018-03-23T05:18:51.758Z,36.60
2018-03-23T05:21:19.272Z,37.57
2018-03-23T05:23:46.845Z,37.85
2018-03-23T05:26:14.360Z,36.87
2018-03-23T05:28:41.900Z,38.20
2018-03-23T05:31:10.180Z,39.30
2018-03-23T05:33:37.712Z,34.40
2018-03-23T05:36:05.224Z,34.63
2018-03-23T05:38:32.754Z,35.87
2018-03-23T05:41:00.276Z,39.17
2018-03-23T05:43:27.804Z,33.43
2018-03-23T05:45:55.321Z,33.30
2018-03-23T05:48:23.619Z,36.60
2018-03-23T05:50:51.149Z,37.60
2018-03-23T05:53:18.976Z,36.20
2018-03-23T05:55:46.498Z,35.67
2018-03-23T05:58:14.108Z,40.90
2018-03-23T06:00:41.626Z,41.47
2018-03-23T06:03:09.168Z,40.80
2018-03-23T06:05:36.720Z,39.38
2018-03-23T06:08:04.249Z,36.27
2018-03-23T06:10:31.780Z,41.20
2018-03-23T06:13:00.067Z,34.63
2018-03-23T06:15:27.596Z,36.93
2018-03-23T06:17:55.108Z,38.30
2018-03-23T06:20:22.656Z,42.57
2018-03-23T06:22:50.184Z,38.10
2018-03-23T06:25:17.717Z,38.77
2018-03-23T06:27:45.248Z,42.75
2018-03-23T06:30:12.795Z,34.40
2018-03-23T06:32:40.501Z,37.17
2018-03-23T06:35:08.048Z,36.97
2018-03-23T06:37:35.592Z,36.43
2018-03-23T06:40:03.892Z,36.90
2018-03-23T06:42:31.412Z,39.53
2018-03-23T06:44:58.984Z,42.23
2018-03-23T06:47:26.507Z,39.03
2018-03-23T06:49:54.044Z,38.83
2018-03-23T06:52:21.625Z,41.33
2018-03-23T06:54:49.188Z,33.70
2018-03-23T06:57:16.708Z,31.17
2018-03-23T06:59:44.248Z,35.40
2018-03-23T07:02:11.764Z,32.10
2018-03-23T07:04:39.296Z,37.63
2018-03-23T07:07:07.770Z,35.93
2018-03-23T07:09:35.316Z,38.67
2018-03-23T07:12:02.888Z,39.10
2018-03-23T07:14:30.452Z,38.20
2018-03-23T07:16:58.015Z,39.93
2018-03-23T07:19:25.577Z,43.47
2018-03-23T07:21:53.900Z,43.60
2018-03-23T07:24:21.461Z,47.10
2018-03-23T07:26:49.055Z,53.60
2018-03-23T07:29:16.594Z,45.67
2018-03-23T07:31:44.164Z,45.40
2018-03-23T07:34:11.680Z,50.63
2018-03-23T07:36:39.212Z,45.57
2018-03-23T07:39:07.642Z,38.03
2018-03-23T07:41:35.196Z,42.65
2018-03-23T07:44:03.477Z,45.60
2018-03-23T07:46:31.773Z,39.80
2018-03-23T07:48:59.291Z,43.08
2018-03-23T07:51:27.606Z,39.30
2018-03-23T07:53:55.165Z,39.50
2018-03-23T07:56:22.708Z,44.70
2018-03-23T07:58:51.016Z,38.60
2018-03-23T08:01:18.577Z,39.37
2018-03-23T08:03:46.094Z,44.63
2018-03-23T08:06:13.640Z,41.30
2018-03-23T08:08:42.849Z,43.40
2018-03-23T08:11:10.380Z,40.97
2018-03-23T08:13:37.926Z,41.50
2018-03-23T08:16:05.457Z,42.17
2018-03-23T08:18:33.744Z,39.87
2018-03-23T08:21:01.305Z,42.50
2018-03-23T08:23:28.839Z,46.83
2018-03-23T08:25:56.373Z,43.00
2018-03-23T08:28:24.677Z,41.50
2018-03-23T08:30:53.016Z,40.23
2018-03-23T08:33:20.533Z,39.77
2018-03-23T08:35:48.072Z,40.30
2018-03-23T08:38:15.600Z,44.33
2018-03-23T08:40:43.310Z,39.03
2018-03-23T08:43:10.841Z,45.10
2018-03-23T08:45:38.366Z,40.70
2018-03-23T08:48:05.960Z,35.37
2018-03-23T08:50:34.265Z,39.10
2018-03-23T08:53:01.812Z,38.05
2018-03-23T08:55:29.333Z,38.00
2018-03-23T08:57:56.919Z,34.40
2018-03-23T09:00:24.476Z,35.43
2018-03-23T09:02:52.060Z,36.87
2018-03-23T09:05:19.576Z,46.77
2018-03-23T09:07:47.116Z,32.97
2018-03-23T09:10:14.721Z,33.30
2018-03-23T09:12:42.254Z,37.83
2018-03-23T09:15:09.829Z,36.03
2018-03-23T09:17:37.416Z,35.50
2018-03-23T09:20:06.443Z,29.17
2018-03-23T09:22:34.112Z,25.60
2018-03-23T09:25:01.641Z,37.40
2018-03-23T09:27:29.175Z,34.50
2018-03-23T09:29:56.727Z,40.30
2018-03-23T09:32:24.253Z,33.90
2018-03-23T09:34:51.778Z,33.30
2018-03-23T09:37:20.102Z,33.93
2018-03-23T09:39:47.631Z,48.20
2018-03-23T09:42:15.163Z,40.83
2018-03-23T09:44:42.685Z,39.77
2018-03-23T09:47:10.216Z,46.87
2018-03-23T09:49:38.499Z,38.00
2018-03-23T09:52:06.068Z,40.23
2018-03-23T09:54:33.617Z,36.03
2018-03-23T09:57:02.144Z,40.87
2018-03-23T09:59:29.680Z,40.13
2018-03-23T10:01:57.964Z,46.23
2018-03-23T10:04:25.508Z,44.83
2018-03-23T10:06:53.028Z,40.23
2018-03-23T10:09:20.575Z,39.90
2018-03-23T10:11:48.881Z,42.10
2018-03-23T10:14:16.408Z,39.33
2018-03-23T10:16:43.932Z,40.27
2018-03-23T10:19:11.472Z,38.97
2018-03-23T10:21:39.040Z,40.40
2018-03-23T10:24:06.593Z,41.07
2018-03-23T10:26:34.127Z,38.10
2018-03-23T10:29:01.685Z,40.37
2018-03-23T10:31:29.234Z,36.73
2018-03-23T10:33:56.778Z,37.50
2018-03-23T10:36:24.324Z,41.83
2018-03-23T10:38:51.869Z,35.17
2018-03-23T10:41:19.410Z,44.90
2018-03-23T10:43:46.940Z,40.87
2018-03-23T10:46:14.504Z,44.40
2018-03-23T10:48:42.033Z,39.83
2018-03-23T10:51:09.694Z,47.60
2018-03-23T10:53:37.233Z,51.80
2018-03-23T10:56:04.778Z,42.25
2018-03-23T10:58:32.323Z,43.20
2018-03-23T11:01:05.605Z,43.03
2018-03-23T11:03:33.146Z,39.70
2018-03-23T11:06:00.707Z,42.93
2018-03-23T11:08:28.260Z,41.60
2018-03-23T11:10:55.826Z,37.10
2018-03-23T11:13:24.181Z,42.33
2018-03-23T11:15:51.793Z,43.30
2018-03-23T11:18:20.300Z,46.23
2018-03-23T11:20:48.612Z,49.43
2018-03-23T11:23:16.136Z,49.17
2018-03-23T11:25:43.672Z,50.77
2018-03-23T11:28:11.193Z,48.87
2018-03-23T11:30:39.620Z,50.80
2018-03-23T11:33:07.168Z,48.70
2018-03-23T11:35:34.701Z,47.20
2018-03-23T11:38:02.263Z,46.90
2018-03-23T11:40:29.801Z,43.72
2018-03-23T11:42:57.316Z,40.57
2018-03-23T11:45:24.860Z,46.17
2018-03-23T11:47:52.390Z,42.77
2018-03-23T11:50:19.937Z,45.10
2018-03-23T11:52:48.379Z,41.80
2018-03-23T11:55:16.701Z,39.77
2018-03-23T11:57:44.251Z,46.90
2018-03-23T12:00:11.776Z,45.17
2018-03-23T12:02:39.332Z,38.47
2018-03-23T12:05:06.894Z,39.60
2018-03-23T12:07:34.409Z,45.33
2018-03-23T12:10:01.960Z,34.13
2018-03-23T12:12:29.479Z,35.63
2018-03-23T12:14:57.020Z,37.47
2018-03-23T12:17:24.552Z,41.40
2018-03-23T12:19:52.139Z,40.70
2018-03-23T12:22:19.673Z,41.13
2018-03-23T12:24:47.257Z,39.00
2018-03-23T12:27:14.781Z,50.30
2018-03-23T12:29:42.314Z,41.00
2018-03-23T12:32:10.628Z,34.97
2018-03-23T12:34:38.921Z,32.83
2018-03-23T12:37:06.454Z,30.90
2018-03-23T12:39:33.972Z,41.30
2018-03-23T12:42:02.298Z,33.23
2018-03-23T12:44:30.053Z,36.37
2018-03-23T12:46:57.589Z,36.67
2018-03-23T12:49:25.100Z,37.93
2018-03-23T12:51:52.749Z,28.57
2018-03-23T12:54:20.273Z,33.63
2018-03-23T12:56:48.628Z,32.23
2018-03-23T12:59:16.950Z,36.43
2018-03-23T13:01:44.468Z,40.73
2018-03-23T13:04:11.988Z,29.70
2018-03-23T13:06:39.628Z,38.40
2018-03-23T13:09:07.945Z,32.50
2018-03-23T13:11:35.485Z,35.67
2018-03-23T13:14:03.000Z,32.63
2018-03-23T13:16:30.542Z,33.27
2018-03-23T13:18:58.118Z,32.80
2018-03-23T13:21:25.668Z,37.70
2018-03-23T13:23:53.212Z,36.33
2018-03-23T13:26:20.741Z,39.50
2018-03-23T13:28:48.251Z,36.13
2018-03-23T13:31:16.556Z,36.67
2018-03-23T13:33:44.076Z,37.00
2018-03-23T13:36:11.612Z,37.60
2018-03-23T13:38:39.133Z,44.20
2018-03-23T13:41:07.443Z,39.07
2018-03-23T13:43:34.977Z,39.93
2018-03-23T13:46:02.505Z,46.67
2018-03-23T13:48:30.052Z,37.90
2018-03-23T13:50:57.565Z,40.47
2018-03-23T13:53:25.093Z,31.93
2018-03-23T13:55:52.609Z,41.70
2018-03-23T13:58:20.149Z,39.53
2018-03-23T14:00:53.350Z,35.83
2018-03-23T14:03:20.975Z,39.85
2018-03-23T14:05:48.524Z,38.30
2018-03-23T14:08:16.836Z,38.70
2018-03-23T14:10:45.125Z,42.07
2018-03-23T14:13:12.689Z,37.87
2018-03-23T14:15:40.224Z,38.10
2018-03-23T14:18:07.754Z,48.13
2018-03-23T14:20:35.307Z,36.40
2018-03-23T14:23:02.844Z,37.53
2018-03-23T14:25:30.388Z,38.97
2018-03-23T14:27:57.929Z,36.87
2018-03-23T14:30:25.448Z,42.60
2018-03-23T14:32:53.028Z,37.40
2018-03-23T14:35:20.561Z,46.87
2018-03-23T14:37:48.092Z,34.57
2018-03-23T14:40:16.398Z,41.80
2018-03-23T14:42:44.038Z,39.77
2018-03-23T14:45:11.557Z,37.50
2018-03-23T14:47:39.156Z,52.30
2018-03-23T14:50:08.205Z,38.87
2018-03-23T14:52:35.772Z,38.53
2018-03-23T14:55:03.303Z,37.10
2018-03-23T14:57:30.873Z,41.70
2018-03-23T14:59:58.390Z,39.13
2018-03-23T15:02:25.936Z,35.77
2018-03-23T15:04:54.488Z,46.03
2018-03-23T15:07:22.004Z,36.60
2018-03-23T15:09:50.355Z,36.77
2018-03-23T15:12:18.644Z,38.67
2018-03-23T15:14:46.189Z,42.10
2018-03-23T15:17:13.713Z,41.23
2018-03-23T15:19:42.022Z,35.53
2018-03-23T15:22:09.545Z,43.37
2018-03-23T15:24:37.112Z,46.00
2018-03-23T15:27:05.628Z,43.63
2018-03-23T15:29:33.936Z,46.77
2018-03-23T15:32:01.478Z,45.83
2018-03-23T15:34:29.033Z,44.60
2018-03-23T15:36:56.576Z,40.80
2018-03-23T15:39:24.116Z,43.07
2018-03-23T15:41:51.648Z,46.70
2018-03-23T15:44:19.197Z,49.57
2018-03-23T15:46:46.764Z,40.28
2018-03-23T15:49:14.321Z,42.00
2018-03-23T15:51:41.897Z,41.28
2018-03-23T15:54:10.301Z,51.27
2018-03-23T15:56:37.886Z,42.45
2018-03-23T15:59:05.504Z,43.00
2018-03-23T16:01:33.039Z,43.95
2018-03-23T16:04:00.613Z,46.90
2018-03-23T16:06:28.145Z,44.67
2018-03-23T16:08:55.678Z,48.53
2018-03-23T16:11:23.193Z,45.57
2018-03-23T16:13:50.754Z,48.00
2018-03-23T16:16:18.288Z,53.90
2018-03-23T16:18:45.819Z,46.47
2018-03-23T16:21:13.369Z,46.00
2018-03-23T16:23:40.896Z,49.97
2018-03-23T16:26:09.206Z,49.40
2018-03-23T16:28:36.725Z,49.17
2018-03-23T16:31:04.256Z,50.30
2018-03-23T16:33:31.768Z,50.67
2018-03-23T16:35:59.304Z,52.75
2018-03-23T16:38:26.865Z,53.80
2018-03-23T16:40:55.175Z,57.08
2018-03-23T16:43:22.828Z,52.57
2018-03-23T16:45:50.376Z,51.20
2018-03-23T16:48:19.978Z,52.30
2018-03-23T16:50:48.388Z,57.95
2018-03-23T16:53:16.669Z,52.80
2018-03-23T16:55:44.211Z,59.30
2018-03-23T16:58:11.740Z,54.95
2018-03-23T17:00:40.048Z,66.40
2018-03-23T17:03:07.564Z,59.57
2018-03-23T17:05:35.102Z,58.53
2018-03-23T17:08:02.641Z,59.43
2018-03-23T17:10:30.179Z,62.73
2018-03-23T17:12:58.468Z,60.93
2018-03-23T17:15:26.150Z,65.87
2018-03-23T17:17:53.684Z,63.03
2018-03-23T17:20:21.215Z,62.73
2018-03-23T17:22:48.737Z,60.20
2018-03-23T17:25:16.305Z,64.30
2018-03-23T17:27:43.845Z,78.20
2018-03-23T17:30:11.377Z,64.13
2018-03-23T17:32:38.892Z,63.77
2018-03-23T17:35:06.465Z,61.40
2018-03-23T17:37:34.124Z,75.00
2018-03-23T17:40:01.687Z,62.50
2018-03-23T17:42:29.233Z,65.80
2018-03-23T17:44:57.496Z,68.12
2018-03-23T17:47:25.036Z,62.60
2018-03-23T17:49:52.564Z,62.90
2018-03-23T17:52:20.096Z,68.80
2018-03-23T17:54:47.628Z,64.97
2018-03-23T17:57:15.171Z,65.10
2018-03-23T17:59:42.756Z,62.95
2018-03-23T18:02:10.311Z,58.83
2018-03-23T18:04:37.852Z,60.60
2018-03-23T18:07:06.356Z,64.43
2018-03-23T18:09:33.900Z,75.30
2018-03-23T18:12:02.205Z,64.00
2018-03-23T18:14:29.975Z,67.50
2018-03-23T18:16:59.424Z,59.53
2018-03-23T18:19:26.937Z,61.23
2018-03-23T18:21:55.241Z,60.30
2018-03-23T18:24:22.757Z,76.17
2018-03-23T18:26:50.296Z,70.50
2018-03-23T18:29:18.586Z,73.17
2018-03-23T18:31:46.116Z,69.00
2018-03-23T18:34:13.639Z,72.32
2018-03-23T18:36:41.934Z,63.07
2018-03-23T18:39:09.453Z,57.60
2018-03-23T18:41:37.888Z,64.43
2018-03-23T18:44:05.416Z,65.23
2018-03-23T18:46:33.020Z,60.78
2018-03-23T18:49:00.543Z,59.63
2018-03-23T18:51:28.856Z,51.73
2018-03-23T18:53:56.384Z,61.63
2018-03-23T18:56:23.913Z,56.43
2018-03-23T18:58:51.449Z,56.45
2018-03-23T19:01:19.236Z,56.30
2018-03-23T19:03:46.784Z,51.97
2018-03-23T19:06:14.312Z,53.73
2018-03-23T19:08:41.861Z,52.03
2018-03-23T19:11:09.381Z,56.50
2018-03-23T19:13:36.940Z,52.47
2018-03-23T19:16:04.457Z,61.67
2018-03-23T19:18:32.772Z,51.40
2018-03-23T19:21:00.292Z,52.30
2018-03-23T19:23:27.828Z,51.30
2018-03-23T19:25:55.345Z,58.27
2018-03-23T19:28:23.644Z,50.83
2018-03-23T19:30:51.160Z,47.47
2018-03-23T19:33:19.521Z,48.17
2018-03-23T19:35:47.809Z,51.97
2018-03-23T19:38:15.349Z,51.00
2018-03-23T19:40:42.868Z,52.50
2018-03-23T19:43:11.169Z,54.03
2018-03-23T19:45:38.684Z,54.27
2018-03-23T19:48:06.216Z,50.30
2018-03-23T19:50:34.512Z,54.97
2018-03-23T19:53:02.061Z,53.83
2018-03-23T19:55:29.619Z,56.10
2018-03-23T19:57:57.245Z,51.70
2018-03-23T20:00:24.776Z,82.70
2018-03-23T20:02:52.352Z,61.40
2018-03-23T20:05:19.864Z,54.73
2018-03-23T20:07:47.441Z,55.33
2018-03-23T20:10:14.973Z,50.80
2018-03-23T20:12:42.508Z,52.63
2018-03-23T20:15:10.052Z,61.23
2018-03-23T20:17:43.172Z,61.37
2018-03-23T20:20:16.512Z,56.10
2018-03-23T20:22:44.024Z,52.13
2018-03-23T20:25:12.345Z,59.30
2018-03-23T20:27:46.412Z,60.10
2018-03-23T20:30:13.968Z,62.23
2018-03-23T20:32:41.496Z,57.20
2018-03-23T20:35:09.024Z,62.60
2018-03-23T20:37:37.377Z,61.40
2018-03-23T20:40:04.952Z,56.10
2018-03-23T20:42:32.476Z,61.03
2018-03-23T20:45:00.056Z,65.60
2018-03-23T20:47:27.619Z,64.73
2018-03-23T20:49:55.217Z,67.78
2018-03-23T20:52:22.814Z,75.27
2018-03-23T20:54:50.412Z,73.53
2018-03-23T20:57:17.933Z,76.00
2018-03-23T20:59:46.250Z,74.77
2018-03-23T21:02:13.779Z,68.23
2018-03-23T21:04:41.317Z,66.23
2018-03-23T21:07:08.956Z,67.30
2018-03-23T21:09:36.500Z,66.47
2018-03-23T21:12:04.039Z,71.77
2018-03-23T21:14:31.575Z,76.10
2018-03-23T21:16:59.388Z,73.43
2018-03-23T21:19:27.697Z,69.50
2018-03-23T21:21:55.268Z,70.87
2018-03-23T21:24:22.828Z,71.17
2018-03-23T21:26:50.376Z,66.80
2018-03-23T21:29:17.893Z,70.73
2018-03-23T21:31:45.424Z,73.30
2018-03-23T21:34:12.949Z,67.87
2018-03-23T21:36:40.556Z,70.90
2018-03-23T21:39:08.108Z,73.43
2018-03-23T21:41:35.651Z,78.53
2018-03-23T21:44:04.290Z,74.47
2018-03-23T21:46:31.940Z,67.97
2018-03-23T21:48:59.456Z,68.23
2018-03-23T21:51:26.984Z,73.80
2018-03-23T21:53:55.290Z,70.53
2018-03-23T21:56:22.857Z,73.27
2018-03-23T21:58:50.381Z,63.47
2018-03-23T22:01:18.240Z,76.78
2018-03-23T22:03:45.752Z,62.40
2018-03-23T22:06:13.287Z,76.77
2018-03-23T22:08:40.885Z,67.70
2018-03-23T22:11:08.427Z,69.43
2018-03-23T22:13:35.949Z,68.77
2018-03-23T22:16:04.932Z,68.82
2018-03-23T22:18:32.448Z,63.97
2018-03-23T22:20:59.980Z,61.37
2018-03-23T22:23:27.512Z,61.03
2018-03-23T22:25:55.808Z,59.47
2018-03-23T22:28:23.344Z,56.42
2018-03-23T22:30:50.910Z,56.27
2018-03-23T22:33:18.444Z,57.65
2018-03-23T22:35:45.992Z,55.57
2018-03-23T22:38:13.526Z,61.50
2018-03-23T22:40:41.040Z,59.73
2018-03-23T22:43:09.465Z,53.47
2018-03-23T22:45:37.005Z,53.70
2018-03-23T22:48:05.452Z,57.25
2018-03-23T22:50:32.969Z,60.87
2018-03-23T22:53:00.513Z,56.93
2018-03-23T22:55:28.816Z,52.90
2018-03-23T22:57:56.344Z,51.63
2018-03-23T23:00:23.872Z,56.50
2018-03-23T23:02:51.427Z,50.20
2018-03-23T23:05:18.986Z,53.93
2018-03-23T23:07:46.517Z,58.57
2018-03-23T23:10:14.029Z,50.20
2018-03-23T23:12:41.577Z,54.00
2018-03-23T23:15:09.869Z,53.53
2018-03-23T23:17:37.415Z,65.53
2018-03-23T23:20:06.341Z,51.22
2018-03-23T23:22:33.856Z,50.07
2018-03-23T23:25:01.497Z,47.13
2018-03-23T23:27:29.035Z,54.73
2018-03-23T23:29:56.693Z,51.27
2018-03-23T23:32:24.237Z,49.90
2018-03-23T23:34:51.756Z,53.30
2018-03-23T23:37:19.292Z,52.67
2018-03-23T23:39:46.867Z,55.47
2018-03-23T23:42:14.396Z,51.77
2018-03-23T23:44:41.908Z,53.37
2018-03-23T23:47:10.221Z,53.95
2018-03-23T23:49:37.741Z,51.20
2018-03-23T23:52:05.360Z,52.67
2018-03-23T23:54:33.656Z,57.93
2018-03-23T23:57:01.193Z,49.77
2018-03-23T23:59:28.709Z,52.57
